AKDT,Max TemperatureF,Mean TemperatureF,Min TemperatureF,Max Dew PointF,MeanDew PointF,Min DewpointF,Max Humidity, Mean Humidity, Min Humidity, Max Sea Level PressureIn, Mean Sea Level PressureIn, Min Sea Level PressureIn, Max VisibilityMiles, Mean VisibilityMiles, Min VisibilityMiles, Max Wind SpeedMPH, Mean Wind SpeedMPH, Max Gust SpeedMPH,PrecipitationIn, CloudCover, Events, WindDirDegrees
2014-4-1,44,36,28,27,20,15,82,56,32,29.96,29.92,29.89,10,10,10,15,9,,0.00,6,,306
2014-4-2,45,37,30,27,23,19,82,58,42,29.91,29.83,29.73,10,10,10,15,7,,0.00,6,,300
2014-4-3,46,37,28,23,18,14,78,51,28,29.75,29.72,29.69,10,10,10,15,11,21,0.00,0,,296
2014-4-4,42,34,26,33,25,18,89,68,52,29.71,29.68,29.63,10,10,9,13,6,,0.00,4,Rain,67
2014-4-5,41,36,32,36,33,31,96,90,83,29.67,29.59,29.55,10,7,2,16,7,25,0.07,8,Rain-Snow,36
2014-4-6,46,41,37,38,36,34,89,84,73,29.83,29.75,29.63,10,10,10,18,11,28,0.00,8,Rain,96
2014-4-7,45,38,32,41,34,32,100,91,76,29.59,29.31,29.21,10,6,2,20,10,34,0.95,8,Rain-Snow,107
2014-4-8,42,38,35,37,35,32,93,85,73,29.62,29.54,29.37,10,10,7,20,13,40,0.05,7,Rain-Snow,104
2014-4-9,39,37,35,36,33,30,100,86,79,29.71,29.65,29.59,10,9,2,18,11,30,0.01,8,Rain-Snow,103
2014-4-10,39,36,33,35,28,15,100,79,44,30.03,29.77,29.63,10,7,2,21,7,28,0.03,7,Rain-Snow,296
2014-4-11,46,38,30,23,13,8,75,41,23,30.34,30.25,30.06,10,10,10,15,10,,0.00,0,,306
2014-4-12,46,36,26,26,18,10,76,51,28,30.38,30.35,30.31,10,10,10,13,5,,0.00,0,,275
2014-4-13,48,38,28,29,24,19,78,59,36,30.34,30.26,30.14,10,10,10,12,4,,0.00,1,,252
2014-4-14,54,44,34,32,27,24,79,56,34,30.12,29.92,29.79,10,10,10,15,7,,0.00,5,,301
2014-4-15,53,44,34,35,33,30,85,68,48,29.93,29.89,29.85,10,10,10,13,4,,0.00,7,,99
2014-4-16,54,46,39,40,36,31,96,73,49,29.93,29.78,29.52,10,10,10,14,7,,0.08,6,Rain,83
2014-4-17,48,42,37,41,35,29,97,77,58,29.53,29.44,29.38,10,10,7,17,12,,0.11,7,Rain,313
2014-4-18,48,42,37,40,36,33,86,78,68,29.79,29.69,29.53,10,10,10,18,13,33,0.00,6,,94
2014-4-19,54,44,36,34,28,23,89,56,34,29.74,29.58,29.47,10,10,10,18,12,,0.00,3,,299
2014-4-20,55,48,41,39,32,26,80,57,37,29.90,29.79,29.52,10,10,10,17,12,31,0.03,4,Rain,43
2014-4-21,55,45,35,36,30,26,85,58,43,30.01,29.97,29.90,10,10,10,17,12,24,0.00,2,,256
2014-4-22,59,46,33,32,29,27,89,53,31,29.96,29.78,29.66,10,10,10,18,7,23,0.00,3,,297
2014-4-23,46,42,39,40,38,30,96,86,52,29.78,29.73,29.68,10,10,6,10,6,,0.16,8,Rain,96
2014-4-24,52,44,36,39,37,33,93,79,52,29.78,29.70,29.66,10,10,9,8,5,,0.05,5,Rain,110
2014-4-25,54,42,30,37,32,29,96,71,40,29.86,29.79,29.68,10,10,10,12,3,,0.00,0,,154
2014-4-26,53,44,35,35,31,29,82,61,45,29.68,29.56,29.48,10,10,10,15,8,,0.00,5,,293
2014-4-27,57,46,34,40,33,28,82,60,33,29.69,29.50,29.44,10,10,10,16,12,20,0.00,3,,291
2014-4-28,54,48,43,41,38,34,93,77,50,30.05,29.94,29.71,10,9,6,14,10,23,0.12,7,Rain,100
2014-4-29,53,46,39,42,38,30,97,83,52,30.30,30.16,30.05,10,9,4,14,6,24,0.22,6,Rain,338
2014-4-30,62,48,35,30,26,22,76,44,22,30.43,30.35,30.30,10,10,10,20,12,22,0.00,0,,301